LNG Dream — C6VO5 — position and weather

sailwx.info

Track history (hours):
 
Tides and Currents Weather Stations Pressure Air Temp Water Temp Dewpoint Dewpoint Depression Visibility Wind Speed Wind Dir Waves Ship Positions

LNG Dream

Last reported at 2017-Aug-18 10:29 UTC. Time now 2017-Aug-24 06:46 UTC.
Position N 33°56' E 134°56'.

Length 289.6 m; beam 49 m.

Type: Ship (hazmat cat A). MMSI: 309065000.

Date/timePositionNaut miles runAvg speedWind from/ knotsBaromVisibWave heightAir tempDewpointWater temp
2017-Aug-18 10:29N 33°56' E 134°56'714.5
2017-Aug-18 10:00N 34°03' E 134°57'714.0
2017-Aug-18 09:30N 34°10' E 134°58'510.5
2017-Aug-18 09:00N 34°15' E 134°58'611.6
2017-Aug-18 08:30N 34°21' E 134°60'713.7
2017-Aug-18 08:00N 34°26' E 135°06'714.0
2017-Aug-18 07:30N 34°30' E 135°13'713.0
2017-Aug-18 07:00N 34°33' E 135°19'4 9.0
2017-Aug-18 06:30N 34°33' E 135°25'0 0.4
2017-Aug-18 06:00N 34°33' E 135°25'0 0.0
2017-Aug-17 03:05N 34°33' E 135°25'0 0.1
2017-Aug-17 03:00N 34°33' E 135°25'0 0.0
2017-Aug-17 02:30N 34°33' E 135°25'1 1.8
2017-Aug-17 02:00N 34°33' E 135°24'4 7.0
2017-Aug-17 01:30N 34°33' E 135°19'5 9.3
2017-Aug-17 01:00N 34°31' E 135°15'510.8
2017-Aug-17 00:30N 34°27' E 135°10'612.1
2017-Aug-17 00:00N 34°23' E 135°05'712.8
2017-Aug-16 23:30N 34°18' E 134°60'611.3
2017-Aug-16 23:00N 34°12' E 134°60'5 9.5
2017-Aug-16 22:30N 34°08' E 134°59'5 9.2
2017-Aug-16 22:00N 34°03' E 134°59'5 9.4
2017-Aug-16 21:30N 33°58' E 134°59'4 7.4
2017-Aug-16 20:58N 33°54' E 134°58'  
Track history (hours):
 
Tides and Currents Weather Stations Pressure Air Temp Water Temp Dewpoint Dewpoint Depression Visibility Wind Speed Wind Dir Waves Ship Positions

LNG Dream

Last reported at 2017-Aug-18 10:29 UTC. Time now 2017-Aug-24 06:46 UTC.
Position N 33°56' E 134°56'.

Length 289.6 m; beam 49 m.

Type: Ship (hazmat cat A). MMSI: 309065000.

Date/timePositionNaut miles runAvg speedWind from/ knotsBaromVisibWave heightAir tempDewpointWater temp
2017-Aug-18 10:29N 33°56' E 134°56'714.5
2017-Aug-18 10:00N 34°03' E 134°57'714.0
2017-Aug-18 09:30N 34°10' E 134°58'510.5
2017-Aug-18 09:00N 34°15' E 134°58'611.6
2017-Aug-18 08:30N 34°21' E 134°60'713.7
2017-Aug-18 08:00N 34°26' E 135°06'714.0
2017-Aug-18 07:30N 34°30' E 135°13'713.0
2017-Aug-18 07:00N 34°33' E 135°19'4 9.0
2017-Aug-18 06:30N 34°33' E 135°25'0 0.4
2017-Aug-18 06:00N 34°33' E 135°25'0 0.0
2017-Aug-17 03:05N 34°33' E 135°25'0 0.1
2017-Aug-17 03:00N 34°33' E 135°25'0 0.0
2017-Aug-17 02:30N 34°33' E 135°25'1 1.8
2017-Aug-17 02:00N 34°33' E 135°24'4 7.0
2017-Aug-17 01:30N 34°33' E 135°19'5 9.3
2017-Aug-17 01:00N 34°31' E 135°15'510.8
2017-Aug-17 00:30N 34°27' E 135°10'612.1
2017-Aug-17 00:00N 34°23' E 135°05'712.8
2017-Aug-16 23:30N 34°18' E 134°60'611.3
2017-Aug-16 23:00N 34°12' E 134°60'5 9.5
2017-Aug-16 22:30N 34°08' E 134°59'5 9.2
2017-Aug-16 22:00N 34°03' E 134°59'5 9.4
2017-Aug-16 21:30N 33°58' E 134°59'4 7.4
2017-Aug-16 20:58N 33°54' E 134°58'  

Dump ship's entire track history